Flight Track Log - Related Links

Times and Time Zones

All times are in EDT time to prevent confusion due to time zone crossing. See the ASQ4283 flight status page for this flight to view local times or setup timezone preferences in your user account.

Time Position Orientation Groundspeed Altitude Reporting Facility
EDT Latitude Longitude Course Direction KTS MPH feet Rate Location/Type
Sun 03:22:10 PM 41.9667 -87.8500 186° South 207 238 2,900  Level Chicago TRACON
Sun 03:22:47 PM 41.9392 -87.8197 141° Southeast 226 260 4,100 2,545 Climbing Chicago Center
Sun 03:23:49 PM 41.8583 -87.7878 164° South 261 300 7,100 2,736 Climbing Chicago Center
Sun 03:24:52 PM 41.7781 -87.7986 186° South 287 330 9,800 2,592 Climbing Chicago Center
Sun 03:25:00 PM 41.6021 -87.8204 180° South  Level Estimated
Sun 03:25:54 PM 41.6992 -87.8150 189° South 290 334 12,500  Level Chicago Center
Sun 03:26:00 PM 41.5072 -87.7990 176° South  Level Estimated
Sun 03:26:56 PM 41.6178 -87.8339 190° South 295 339 14,600  Level Chicago Center
Sun 03:27:00 PM 41.4123 -87.7777 186° South  Level Estimated
Sun 03:27:58 PM 41.5253 -87.8408 183° South 333 383 15,900  Level Chicago Center
Sun 03:29:00 PM 41.4247 -87.8258 174° South 355 409 17,100 1,210 Climbing Chicago Center
Sun 03:30:02 PM 41.3192 -87.8111 174° South 372 428 18,400 1,408 Climbing Chicago Center
Sun 03:31:59 PM 41.0953 -87.7769 173° South 394 453 21,300 1,408 Climbing Indianapolis Center
Sun 03:33:01 PM 40.9839 -87.7608 174° South 399 459 22,600 1,268 Climbing Indianapolis Center
Sun 03:34:02 PM 40.8714 -87.7447 174° South 405 466 23,900 1,268 Climbing Indianapolis Center
Sun 03:35:04 PM 40.7578 -87.7292 174° South 409 471 25,200 1,355 Climbing Indianapolis Center
Sun 03:36:06 PM 40.6233 -87.7092 174° South 408 470 26,700 1,317 Climbing Indianapolis Center
Sun 03:37:07 PM 40.5111 -87.6925 174° South 407 468 27,900 1,171 Climbing Indianapolis Center
Sun 03:38:09 PM 40.3994 -87.6761 174° South 405 466 29,100 1,161 Climbing Indianapolis Center
Sun 03:39:11 PM 40.2878 -87.6603 174° South 405 466 30,300 1,218 Climbing Indianapolis Center
Sun 03:40:22 PM 40.1575 -87.6403 173° South 405 466 31,800 1,122 Climbing Chicago Center
Sun 03:41:14 PM 40.0653 -87.6278 174° South 403 464 32,600 637 Climbing Indianapolis Center
Sun 03:42:15 PM 39.9278 -87.6083 174° South 415 478 33,000 195 Climbing Indianapolis Center
Sun 03:43:17 PM 39.8097 -87.5908 174° South 425 489 33,000  Level Indianapolis Center
Sun 03:44:19 PM 39.6894 -87.5747 174° South 435 501 33,000  Level Indianapolis Center
Sun 03:45:20 PM 39.5689 -87.5569 174° South 436 502 33,000  Level Indianapolis Center
Sun 03:46:22 PM 39.4500 -87.5411 174° South 432 497 33,000  Level Indianapolis Center
Sun 03:47:24 PM 39.3328 -87.5242 174° South 426 490 33,000  Level Indianapolis Center
Sun 03:48:26 PM 39.2161 -87.5083 174° South 424 488 33,000  Level Indianapolis Center
Sun 03:49:27 PM 39.0789 -87.4900 174° South 430 495 33,000  Level Indianapolis Center
Sun 03:50:29 PM 38.9578 -87.4731 174° South 435 501 33,000 97 Level Indianapolis Center
Sun 03:51:31 PM 38.8367 -87.4558 174° South 438 504 33,200 484 Climbing Indianapolis Center
Sun 03:52:33 PM 38.7172 -87.4392 174° South 433 498 34,000 390 Climbing Indianapolis Center
Sun 03:53:34 PM 38.5986 -87.4231 174° South 428 493 34,000  Level Indianapolis Center
Sun 03:54:36 PM 38.4567 -87.3983 172° South 429 494 34,000  Level Indianapolis Center
Sun 03:55:38 PM 38.3444 -87.3511 162° South 427 491 34,000  Level Indianapolis Center
Sun 03:56:40 PM 38.2358 -87.3047 161° South 419 482 34,000 -488 Level Indianapolis Center
Sun 03:57:41 PM 38.1286 -87.2550 160° South 415 478 33,000 -1,317 Descending Indianapolis Center
Sun 03:58:43 PM 38.0189 -87.2097 162° South 417 480 31,300 -1,790 Descending Indianapolis Center
Sun 03:59:45 PM 37.9047 -87.1656 163° South 428 493 29,300 -2,129 Descending Indianapolis Center
Sun 04:00:47 PM 37.7622 -87.1047 161° South 448 516 26,900 -2,129 Descending Indianapolis Center
Sun 04:01:49 PM 37.6414 -87.0614 164° South 450 518 24,900 -1,805 Descending Indianapolis Center
Sun 04:02:50 PM 37.5178 -87.0631 181° South 440 506 23,200 -927 Descending Indianapolis Center
Sun 04:03:52 PM 37.3975 -87.0711 183° South 432 497 23,000 -97 Descending Indianapolis Center
Sun 04:04:54 PM 37.2803 -87.0772 182° South 420 483 23,000  Level Indianapolis Center
Sun 04:05:56 PM 37.1611 -87.0825 182° South 423 487 23,000 -244 Level Indianapolis Center
Sun 04:06:57 PM 37.0419 -87.0875 182° South 424 488 22,500 -1,286 Descending Indianapolis Center
Sun 04:07:34 PM 36.9494 -87.0939 183° South 424 488 20,900 -2,260 Descending Memphis Center
Sun 04:08:14 PM 36.8892 -87.0989 184° South 415 478 19,600 -2,280 Descending Memphis Center
Sun 04:09:14 PM 36.7739 -87.0778 172° South 400 460 17,100 -2,150 Descending Memphis Center
Sun 04:10:14 PM 36.6869 -87.0217 153° Southeast 367 422 15,300 -1,800 Descending Memphis Center
Sun 04:11:14 PM 36.6064 -86.9708 153° Southeast 344 396 13,500 -1,750 Descending Memphis Center
Sun 04:12:14 PM 36.5281 -86.9275 156° South 322 371 11,800 -1,600 Descending Memphis Center
Sun 04:13:14 PM 36.4561 -86.8894 157° South 299 344 10,300 -1,550 Descending Memphis Center
Sun 04:14:14 PM 36.3903 -86.8508 155° Southeast 277 319 8,700 -1,450 Descending Memphis Center
Sun 04:15:14 PM 36.3308 -86.8044 148° Southeast 272 313 7,400 -1,250 Descending Memphis Center
Sun 04:16:14 PM 36.2628 -86.7664 156° South 267 307 6,200 -1,500 Descending Memphis Center
Sun 04:17:14 PM 36.1964 -86.7719 184° South 240 276 4,400 -1,550 Descending Memphis Center
Sun 04:18:14 PM 36.1214 -86.7725 180° South 240 276 3,100 -1,300 Descending Memphis Center

Login

Don't have an account? Register now (free) for customized features, flight alerts, and more!